Time;durP1;ratioP1;P1;durP2;ratioP2;P2;SDS_P1;SDS_P2;PMS_P1;PMS_P2;Temp;Humidity;BMP_temperature;BMP_pressure;BME280_temperature;BME280_humidity;BME280_pressure;Samples;Min_cycle;Max_cycle;Signal;HPM_P1;HPM_P2
2022/11/05 00:09:33;;;;;;;16.77;9.20;;;12.70;81.80;;;;;;5016230;28;20228;-73
2022/11/05 00:17:40;;;;;;;17.90;9.95;;;12.70;81.70;;;;;;5011049;28;20688;-72
2022/11/05 00:20:08;;;;;;;14.90;9.05;;;12.70;81.50;;;;;;5009896;28;20216;-72
2022/11/05 00:25:20;;;;;;;19.00;10.15;;;12.70;82.30;;;;;;5011499;28;20278;-72
2022/11/05 00:27:52;;;;;;;15.70;9.15;;;12.60;82.50;;;;;;5011054;28;20196;-72
2022/11/05 00:30:21;;;;;;;19.45;8.95;;;12.60;81.70;;;;;;5013581;28;20189;-70
2022/11/05 00:32:48;;;;;;;15.65;9.35;;;12.70;81.50;;;;;;5008834;28;20598;-71
2022/11/05 00:35:15;;;;;;;14.93;8.48;;;12.70;81.90;;;;;;5015349;28;20189;-70
2022/11/05 00:37:41;;;;;;;15.90;8.65;;;12.70;80.80;;;;;;5014653;28;20191;-71
2022/11/05 00:40:07;;;;;;;11.43;8.02;;;12.70;80.40;;;;;;5011652;28;20208;-71
2022/11/05 00:45:17;;;;;;;17.80;9.65;;;12.60;82.40;;;;;;5013101;28;20329;-72
2022/11/05 00:50:27;;;;;;;15.95;9.32;;;12.60;82.30;;;;;;5011366;28;20233;-73
2022/11/05 00:52:54;;;;;;;16.63;9.15;;;12.50;81.50;;;;;;5014428;28;20655;-70
2022/11/05 00:55:41;;;;;;;14.75;8.65;;;12.50;81.90;;;;;;5012428;28;20186;-72
2022/11/05 00:58:18;;;;;;;13.65;8.90;;;12.50;81.00;;;;;;5013247;28;20188;-72
2022/11/05 01:00:51;;;;;;;13.15;8.18;;;12.50;80.40;;;;;;5012155;28;20679;-71
2022/11/05 01:03:18;;;;;;;12.90;8.75;;;12.50;80.20;;;;;;5006396;28;20234;-71
2022/11/05 01:05:47;;;;;;;13.00;9.27;;;12.50;81.50;;;;;;5013605;28;20303;-72
2022/11/05 01:08:15;;;;;;;14.27;8.57;;;12.50;80.20;;;;;;5010567;28;20191;-72
2022/11/05 01:10:42;;;;;;;11.00;8.40;;;12.50;80.90;;;;;;5011813;28;20196;-72
2022/11/05 01:13:08;;;;;;;13.63;9.15;;;12.50;80.20;;;;;;5014024;28;20185;-72
2022/11/05 01:15:36;;;;;;;14.32;8.93;;;12.50;79.70;;;;;;5012314;28;20662;-72
2022/11/05 01:18:01;;;;;;;20.02;9.07;;;12.60;83.10;;;;;;5010870;28;20186;-72
2022/11/05 01:20:27;;;;;;;15.95;8.70;;;12.60;81.70;;;;;;5014517;28;20242;-72
2022/11/05 01:22:53;;;;;;;16.45;8.52;;;12.60;82.50;;;;;;5011098;28;20181;-71
2022/11/05 01:25:18;;;;;;;13.77;8.13;;;12.60;82.80;;;;;;5010617;28;21219;-71
2022/11/05 01:27:44;;;;;;;13.68;9.32;;;12.60;83.00;;;;;;5014816;28;20195;-71
2022/11/05 01:30:10;;;;;;;12.75;8.75;;;12.60;82.80;;;;;;5012614;28;20251;-71
2022/11/05 01:32:36;;;;;;;11.25;8.27;;;12.60;82.60;;;;;;5010703;28;20208;-71
2022/11/05 01:35:07;;;;;;;14.02;8.85;;;12.50;83.00;;;;;;5013757;28;20180;-72
2022/11/05 01:37:33;;;;;;;13.52;8.57;;;12.60;82.70;;;;;;5009829;28;20217;-70
2022/11/05 01:39:59;;;;;;;13.75;8.30;;;12.50;83.00;;;;;;5014108;28;20196;-71
2022/11/05 01:42:26;;;;;;;12.52;7.97;;;12.50;82.70;;;;;;5012775;28;20181;-71
2022/11/05 01:44:58;;;;;;;11.65;8.52;;;12.50;82.70;;;;;;5011384;28;20188;-71
2022/11/05 01:47:42;;;;;;;16.17;9.25;;;12.50;82.20;;;;;;5011069;28;20708;-71
2022/11/05 01:50:22;;;;;;;12.52;7.75;;;12.40;80.80;;;;;;5011714;28;20261;-71
2022/11/05 01:52:51;;;;;;;12.82;8.05;;;12.40;81.10;;;;;;5011072;28;20233;-70
2022/11/05 01:55:22;;;;;;;18.65;8.80;;;12.40;81.30;;;;;;5006517;28;20443;-71
2022/11/05 01:57:49;;;;;;;10.90;7.97;;;12.40;81.00;;;;;;5008868;28;20196;-71
2022/11/05 02:00:15;;;;;;;12.13;8.07;;;12.40;81.20;;;;;;5009604;28;20204;-72
2022/11/05 02:02:42;;;;;;;12.77;8.63;;;12.40;81.70;;;;;;5009856;28;20231;-71
2022/11/05 02:05:10;;;;;;;12.35;7.80;;;12.40;82.60;;;;;;5011691;28;20780;-71
2022/11/05 02:07:36;;;;;;;16.58;8.45;;;12.40;82.90;;;;;;5014165;28;20181;-71
2022/11/05 02:10:12;;;;;;;17.00;8.57;;;12.40;83.30;;;;;;5005083;28;20189;-71
2022/11/05 02:12:42;;;;;;;14.52;9.20;;;12.40;81.90;;;;;;5008713;28;20185;-69
2022/11/05 02:15:12;;;;;;;15.30;8.77;;;12.40;82.90;;;;;;5008266;28;20217;-72
2022/11/05 02:17:47;;;;;;;12.10;8.73;;;12.40;83.10;;;;;;5012130;28;20188;-72
2022/11/05 02:20:31;;;;;;;14.48;8.77;;;12.30;83.60;;;;;;5014110;28;20217;-71
2022/11/05 02:23:06;;;;;;;13.57;9.25;;;12.30;84.20;;;;;;5008876;28;20193;-72
2022/11/05 02:25:37;;;;;;;13.00;7.88;;;12.20;84.10;;;;;;5007037;28;20188;-71
2022/11/05 02:28:03;;;;;;;13.23;8.10;;;12.20;83.40;;;;;;5012684;28;20180;-71
2022/11/05 02:30:39;;;;;;;16.58;8.90;;;12.10;83.30;;;;;;5013057;28;20189;-72
2022/11/05 02:33:35;;;;;;;13.10;8.15;;;12.10;83.30;;;;;;5009382;28;20179;-71
2022/11/05 02:36:28;;;;;;;11.15;7.88;;;12.10;82.80;;;;;;5015192;28;20173;-71
2022/11/05 02:38:57;;;;;;;10.43;8.00;;;12.10;82.10;;;;;;5003316;28;20196;-72
2022/11/05 02:41:33;;;;;;;12.18;8.10;;;12.10;82.40;;;;;;5009520;28;20993;-72
2022/11/05 02:44:40;;;;;;;12.93;8.50;;;12.10;83.30;;;;;;5006038;28;20280;-71
2022/11/05 02:47:41;;;;;;;20.15;8.57;;;12.10;82.80;;;;;;5011439;28;20188;-71
2022/11/05 02:50:32;;;;;;;18.92;8.75;;;12.00;84.50;;;;;;5009072;28;20188;-70
2022/11/05 02:53:14;;;;;;;10.70;7.87;;;12.00;84.40;;;;;;5013262;28;20185;-71
2022/11/05 02:55:58;;;;;;;8.48;7.30;;;12.00;84.60;;;;;;5007110;28;20250;-70
2022/11/05 02:58:27;;;;;;;10.65;7.55;;;12.00;83.70;;;;;;5009142;28;20644;-71
2022/11/05 03:01:00;;;;;;;15.75;8.02;;;12.00;83.40;;;;;;5010505;28;20209;-72
2022/11/05 03:03:44;;;;;;;12.77;8.20;;;11.90;82.60;;;;;;5006562;28;20182;-71
2022/11/05 03:06:32;;;;;;;15.45;7.80;;;11.90;82.20;;;;;;5005365;28;20185;-71
2022/11/05 03:09:17;;;;;;;13.32;7.70;;;11.90;82.10;;;;;;5008741;28;20259;-72
2022/11/05 03:12:10;;;;;;;16.15;7.65;;;11.90;82.50;;;;;;5006326;28;20651;-69
2022/11/05 03:14:59;;;;;;;11.23;7.88;;;11.90;82.50;;;;;;5012728;28;20192;-71
2022/11/05 03:17:59;;;;;;;14.73;8.10;;;11.90;85.10;;;;;;5010287;28;20270;-71
2022/11/05 03:20:33;;;;;;;12.27;7.95;;;11.80;84.30;;;;;;5006696;28;20213;-71
2022/11/05 03:23:16;;;;;;;16.77;8.65;;;11.80;84.20;;;;;;5013451;28;20216;-70
2022/11/05 03:25:55;;;;;;;15.90;8.57;;;11.70;85.90;;;;;;5009756;28;20619;-71
2022/11/05 03:28:26;;;;;;;17.75;9.60;;;11.70;84.40;;;;;;5012488;28;20661;-72
2022/11/05 03:30:55;;;;;;;12.13;8.68;;;11.70;85.30;;;;;;5008825;28;20181;-72
2022/11/05 03:33:26;;;;;;;15.75;8.70;;;11.70;84.50;;;;;;5017895;28;20777;-72
2022/11/05 03:36:00;;;;;;;17.63;7.95;;;11.70;84.70;;;;;;5011482;28;20571;-72
2022/11/05 03:38:36;;;;;;;16.58;9.43;;;11.70;85.10;;;;;;5007481;28;20184;-71
2022/11/05 03:41:06;;;;;;;19.83;9.52;;;11.60;85.50;;;;;;5014819;28;20223;-70
2022/11/05 03:43:36;;;;;;;18.60;10.13;;;11.50;85.80;;;;;;5014661;28;20185;-71
2022/11/05 03:46:28;;;;;;;11.95;8.18;;;11.40;84.70;;;;;;5011985;28;20274;-71
2022/11/05 03:48:55;;;;;;;11.38;8.68;;;11.50;84.70;;;;;;5009327;28;20196;-71
2022/11/05 03:51:52;;;;;;;13.25;8.02;;;11.50;83.80;;;;;;5008940;28;20267;-71
2022/11/05 03:54:18;;;;;;;16.23;8.98;;;11.50;84.90;;;;;;5012425;28;20251;-72
2022/11/05 03:57:02;;;;;;;16.30;9.27;;;11.50;85.60;;;;;;5014448;28;20192;-70
2022/11/05 03:59:30;;;;;;;11.20;8.13;;;11.50;85.70;;;;;;5007866;28;20195;-71
2022/11/05 04:01:56;;;;;;;13.88;8.02;;;11.50;84.40;;;;;;5011354;28;20278;-71
2022/11/05 04:04:22;;;;;;;12.93;9.07;;;11.50;84.50;;;;;;5018223;28;20319;-72
2022/11/05 04:15:03;;;;;;;13.20;8.38;;;11.50;85.10;;;;;;5008981;28;20243;-71
2022/11/05 04:17:29;;;;;;;14.77;7.93;;;11.50;85.10;;;;;;5015564;28;20184;-70
2022/11/05 04:25:23;;;;;;;12.73;8.10;;;11.50;83.40;;;;;;5013085;28;21176;-71
2022/11/05 04:27:48;;;;;;;14.48;7.85;;;11.50;83.30;;;;;;5012138;28;20208;-70
2022/11/05 04:30:19;;;;;;;16.98;8.57;;;11.50;84.20;;;;;;5010804;28;20189;-70
2022/11/05 04:33:01;;;;;;;15.15;8.38;;;11.50;85.40;;;;;;5010687;28;20245;-71
2022/11/05 04:35:40;;;;;;;13.27;8.32;;;11.50;84.10;;;;;;5010466;28;20192;-71
2022/11/05 04:38:09;;;;;;;17.33;8.60;;;11.50;84.40;;;;;;5011261;28;20757;-71
2022/11/05 04:40:35;;;;;;;14.83;9.13;;;11.50;84.60;;;;;;5012072;28;20248;-71
2022/11/05 04:43:01;;;;;;;11.00;7.95;;;11.50;84.10;;;;;;5012525;28;20231;-72
2022/11/05 04:45:30;;;;;;;11.40;7.82;;;11.50;84.50;;;;;;5018888;28;20959;-71
2022/11/05 04:47:55;;;;;;;13.32;8.52;;;11.50;83.90;;;;;;5018305;28;20264;-72
2022/11/05 04:50:22;;;;;;;11.40;7.32;;;11.50;83.90;;;;;;5017083;28;20267;-73
2022/11/05 04:52:47;;;;;;;12.03;7.50;;;11.60;83.80;;;;;;5013609;28;20196;-72
2022/11/05 04:55:13;;;;;;;12.02;8.00;;;11.50;83.30;;;;;;5014751;28;20189;-72
2022/11/05 04:57:39;;;;;;;10.75;8.00;;;11.60;83.30;;;;;;5011459;28;20184;-73
2022/11/05 05:00:07;;;;;;;14.48;8.35;;;11.60;84.20;;;;;;5010330;28;20191;-71
2022/11/05 05:02:34;;;;;;;19.33;9.38;;;11.60;84.30;;;;;;5011324;28;20705;-71
2022/11/05 05:05:00;;;;;;;15.10;8.30;;;11.60;82.90;;;;;;5014062;28;20662;-71
2022/11/05 05:07:27;;;;;;;24.35;8.75;;;11.60;84.20;;;;;;5012070;28;20214;-70
2022/11/05 05:09:53;;;;;;;13.10;8.75;;;11.70;83.80;;;;;;5044011;28;20196;-71
2022/11/05 05:12:20;;;;;;;13.20;9.20;;;11.70;83.70;;;;;;5014008;28;20212;-73
2022/11/05 05:14:47;;;;;;;15.77;9.00;;;11.70;83.20;;;;;;5012671;28;20208;-72
2022/11/05 05:17:13;;;;;;;12.05;8.07;;;11.70;82.90;;;;;;5013245;28;20176;-71
2022/11/05 05:22:23;;;;;;;12.27;8.57;;;11.70;82.80;;;;;;5010887;28;20216;-72
2022/11/05 05:24:48;;;;;;;11.98;8.13;;;11.70;82.70;;;;;;5013610;28;20667;-71
2022/11/05 05:27:14;;;;;;;14.20;7.82;;;11.70;83.10;;;;;;5010489;28;20666;-71
2022/11/05 05:29:39;;;;;;;14.50;8.23;;;11.70;82.90;;;;;;5008526;28;20195;-71
2022/11/05 05:32:06;;;;;;;11.10;7.70;;;11.70;83.00;;;;;;5005059;28;20181;-71
2022/11/05 05:34:32;;;;;;;11.27;8.07;;;11.80;83.20;;;;;;5008372;28;20567;-72
2022/11/05 05:36:57;;;;;;;15.45;8.30;;;11.80;82.80;;;;;;5010091;28;20189;-71
2022/11/05 05:39:23;;;;;;;13.80;8.80;;;11.80;82.70;;;;;;5010063;28;20280;-70
2022/11/05 05:41:48;;;;;;;12.82;8.30;;;11.90;82.70;;;;;;5006351;28;20304;-71
2022/11/05 05:44:14;;;;;;;12.77;8.35;;;11.90;83.30;;;;;;5010606;28;20259;-70
2022/11/05 05:46:40;;;;;;;13.10;9.20;;;12.00;83.80;;;;;;5006398;28;20195;-73
2022/11/05 05:49:08;;;;;;;15.88;9.13;;;12.00;83.20;;;;;;5008626;28;20264;-70
2022/11/05 05:51:33;;;;;;;15.15;8.32;;;12.00;84.80;;;;;;5015679;28;21010;-71
2022/11/05 05:53:59;;;;;;;15.52;10.07;;;12.10;85.50;;;;;;5005812;28;20181;-72
2022/11/05 05:56:25;;;;;;;14.88;9.63;;;12.10;85.30;;;;;;5010408;28;20200;-72
2022/11/05 05:58:51;;;;;;;14.07;9.60;;;12.20;85.50;;;;;;5011342;28;20198;-72
2022/11/05 06:01:17;;;;;;;17.85;10.02;;;12.20;84.90;;;;;;5002059;28;20710;-71
2022/11/05 06:03:43;;;;;;;12.85;8.45;;;12.20;85.20;;;;;;5008625;28;20199;-72
2022/11/05 06:06:12;;;;;;;14.20;9.00;;;12.20;85.30;;;;;;5008983;28;20671;-71
2022/11/05 06:08:37;;;;;;;16.63;9.27;;;12.30;85.30;;;;;;5010574;28;20250;-71
2022/11/05 06:11:04;;;;;;;14.60;9.27;;;12.30;84.50;;;;;;5007638;28;20177;-72
2022/11/05 06:13:30;;;;;;;13.52;9.07;;;12.20;84.00;;;;;;5010709;28;20176;-71
2022/11/05 06:16:01;;;;;;;12.38;8.30;;;12.30;84.30;;;;;;5010363;28;20190;-71
2022/11/05 06:18:28;;;;;;;13.35;8.77;;;12.30;83.70;;;;;;5005873;28;20441;-71
2022/11/05 06:20:54;;;;;;;16.08;8.60;;;12.40;84.30;;;;;;5010529;28;20215;-70
2022/11/05 06:23:20;;;;;;;12.50;8.82;;;12.50;84.30;;;;;;5007536;28;20188;-72
2022/11/05 06:25:46;;;;;;;15.68;10.25;;;12.50;84.00;;;;;;5008563;28;20972;-71
2022/11/05 06:28:12;;;;;;;16.23;8.38;;;12.60;84.30;;;;;;5007314;28;20615;-70
2022/11/05 06:30:37;;;;;;;14.38;9.30;;;12.70;84.40;;;;;;5014646;28;20242;-69
2022/11/05 06:33:04;;;;;;;17.83;9.98;;;12.80;84.80;;;;;;5008448;28;20696;-72
2022/11/05 06:35:30;;;;;;;16.05;9.88;;;12.90;84.00;;;;;;5010914;28;20204;-71
2022/11/05 06:38:02;;;;;;;13.80;9.15;;;13.00;84.20;;;;;;5013382;28;20181;-72
2022/11/05 06:40:28;;;;;;;13.00;9.20;;;13.10;83.50;;;;;;5010411;28;20219;-72
2022/11/05 06:42:54;;;;;;;10.63;8.20;;;13.20;83.90;;;;;;5009301;28;20180;-71
2022/11/05 06:45:20;;;;;;;17.50;9.40;;;13.30;83.90;;;;;;5009321;28;20188;-73
2022/11/05 06:47:45;;;;;;;14.50;8.95;;;13.50;84.20;;;;;;5012093;28;20177;-72
2022/11/05 06:50:11;;;;;;;17.80;9.40;;;13.60;84.30;;;;;;5010001;28;20185;-72
2022/11/05 06:52:36;;;;;;;17.33;9.60;;;13.70;83.80;;;;;;5012031;28;20610;-73
2022/11/05 06:55:03;;;;;;;16.00;8.20;;;13.80;83.40;;;;;;5007640;28;20185;-73
2022/11/05 06:57:28;;;;;;;13.27;8.70;;;13.90;83.30;;;;;;5009815;28;20600;-72
2022/11/05 06:59:54;;;;;;;17.48;9.80;;;14.10;83.20;;;;;;5019138;28;20274;-73
2022/11/05 07:02:19;;;;;;;12.48;9.02;;;14.30;83.70;;;;;;5013307;28;20248;-72
2022/11/05 07:04:45;;;;;;;17.23;10.02;;;14.60;83.00;;;;;;5019300;28;20188;-72
2022/11/05 07:07:11;;;;;;;14.23;8.65;;;15.00;83.20;;;;;;5014637;28;20192;-73
2022/11/05 07:09:39;;;;;;;15.48;8.77;;;15.40;82.70;;;;;;5015866;28;20180;-73
2022/11/05 07:12:05;;;;;;;13.57;9.45;;;15.90;81.40;;;;;;5009088;28;20207;-72
2022/11/05 07:14:31;;;;;;;18.05;10.15;;;16.40;80.20;;;;;;5013797;28;20284;-72
2022/11/05 07:16:56;;;;;;;14.13;9.23;;;16.80;78.60;;;;;;5013080;28;20307;-72
2022/11/05 07:19:22;;;;;;;16.38;10.48;;;17.10;78.80;;;;;;5015270;28;20264;-72
2022/11/05 07:21:49;;;;;;;19.38;10.80;;;17.50;76.10;;;;;;5011510;28;20223;-72
2022/11/05 07:24:15;;;;;;;18.52;10.77;;;17.70;75.90;;;;;;5015766;28;20205;-72
2022/11/05 07:26:41;;;;;;;19.90;10.45;;;17.90;75.50;;;;;;5012810;28;21343;-72
2022/11/05 07:29:07;;;;;;;17.67;10.27;;;18.30;75.60;;;;;;5011859;28;20262;-72
2022/11/05 07:31:32;;;;;;;16.42;11.27;;;18.70;74.30;;;;;;5012921;28;20255;-72
2022/11/05 07:33:59;;;;;;;21.13;11.43;;;19.20;73.20;;;;;;5010288;28;20241;-72
2022/11/05 07:36:25;;;;;;;18.55;10.13;;;19.70;72.40;;;;;;5008362;28;20195;-72
2022/11/05 07:38:51;;;;;;;11.43;9.02;;;20.20;71.50;;;;;;5010433;28;20267;-72
2022/11/05 07:41:17;;;;;;;12.40;8.32;;;20.80;69.90;;;;;;5012985;28;20303;-72
2022/11/05 07:43:43;;;;;;;13.50;9.85;;;21.30;68.60;;;;;;5011453;28;20177;-72
2022/11/05 07:46:09;;;;;;;15.93;9.77;;;21.70;67.80;;;;;;5007969;28;20201;-72
2022/11/05 07:48:36;;;;;;;16.85;9.55;;;22.10;66.90;;;;;;5003663;28;20225;-73
2022/11/05 07:51:01;;;;;;;16.77;9.63;;;22.50;67.20;;;;;;5012097;28;20304;-73
2022/11/05 07:53:27;;;;;;;12.77;9.32;;;23.00;65.10;;;;;;5009769;28;20649;-73
2022/11/05 07:55:53;;;;;;;16.83;10.57;;;23.40;64.00;;;;;;5004672;28;20185;-72
2022/11/05 07:58:18;;;;;;;13.85;9.27;;;23.80;63.70;;;;;;5008481;28;20185;-73
2022/11/05 08:00:44;;;;;;;13.18;9.45;;;24.20;63.10;;;;;;5009044;28;20208;-73
2022/11/05 08:03:15;;;;;;;15.10;9.60;;;24.80;62.30;;;;;;5014838;28;20596;-76
2022/11/05 08:05:45;;;;;;;14.23;9.57;;;25.30;61.80;;;;;;5010717;28;20192;-72
2022/11/05 08:08:14;;;;;;;13.70;9.27;;;25.90;60.80;;;;;;5008226;28;20262;-72
2022/11/05 08:10:40;;;;;;;15.05;10.13;;;26.50;59.80;;;;;;5011606;28;20793;-73
2022/11/05 08:13:07;;;;;;;16.25;10.15;;;27.10;58.10;;;;;;5011186;28;20259;-72
2022/11/05 08:15:33;;;;;;;11.48;9.88;;;27.40;56.70;;;;;;5011583;28;20185;-72
2022/11/05 08:18:19;;;;;;;15.13;10.50;;;27.50;57.00;;;;;;5007995;28;20197;-74
2022/11/05 08:20:46;;;;;;;14.73;10.75;;;27.50;57.10;;;;;;5012578;28;20232;-73
2022/11/05 08:23:12;;;;;;;14.98;10.95;;;27.60;57.40;;;;;;5010285;28;20985;-75
2022/11/05 08:25:38;;;;;;;17.95;11.48;;;27.80;57.10;;;;;;5012768;28;20181;-75
2022/11/05 08:28:12;;;;;;;11.52;9.77;;;28.00;56.20;;;;;;5015297;28;20553;-74
2022/11/05 08:30:38;;;;;;;14.27;9.77;;;28.20;56.00;;;;;;5014392;28;20188;-74
2022/11/05 08:33:07;;;;;;;16.75;9.18;;;28.50;55.60;;;;;;5006277;28;20197;-75
2022/11/05 08:35:36;;;;;;;10.82;9.15;;;28.90;55.10;;;;;;5006099;28;20185;-74
2022/11/05 08:38:04;;;;;;;12.50;9.13;;;29.50;54.30;;;;;;5015768;28;20264;-75
2022/11/05 08:40:33;;;;;;;9.75;8.70;;;30.00;52.80;;;;;;5015158;28;20215;-75
2022/11/05 08:43:01;;;;;;;13.52;8.23;;;30.30;51.90;;;;;;5008116;28;20227;-74
2022/11/05 08:45:27;;;;;;;13.05;8.75;;;30.60;52.60;;;;;;5006861;28;20247;-75
2022/11/05 08:48:07;;;;;;;15.07;9.10;;;30.80;52.00;;;;;;5009639;28;20677;-74
2022/11/05 08:50:34;;;;;;;12.05;8.50;;;30.90;51.90;;;;;;5010816;28;20191;-75
2022/11/05 08:53:00;;;;;;;11.52;8.68;;;31.00;51.90;;;;;;5007332;28;20185;-75
2022/11/05 08:55:26;;;;;;;9.40;8.50;;;31.00;51.50;;;;;;5009257;28;20250;-74
2022/11/05 08:57:56;;;;;;;10.70;8.48;;;31.00;51.20;;;;;;5010358;28;20752;-76
2022/11/05 09:00:22;;;;;;;9.80;8.20;;;30.90;51.30;;;;;;5008172;28;20662;-75
2022/11/05 09:02:47;;;;;;;9.07;8.15;;;30.60;50.70;;;;;;5011957;28;20191;-75
2022/11/05 09:05:13;;;;;;;12.85;8.75;;;30.30;51.40;;;;;;5006743;28;20279;-75
2022/11/05 09:07:39;;;;;;;12.07;8.43;;;29.90;51.00;;;;;;5008633;28;20192;-75
2022/11/05 09:10:05;;;;;;;11.30;8.60;;;29.40;50.60;;;;;;5008052;28;20268;-76
2022/11/05 09:12:30;;;;;;;10.18;8.00;;;29.00;50.50;;;;;;5013036;28;20180;-74
2022/11/05 09:14:56;;;;;;;12.40;7.97;;;28.50;51.30;;;;;;5009788;28;20402;-73
2022/11/05 09:17:22;;;;;;;15.50;8.40;;;28.00;51.00;;;;;;5014175;28;20185;-74
2022/11/05 09:19:48;;;;;;;10.32;7.95;;;27.50;52.50;;;;;;5009009;28;20188;-74
2022/11/05 09:22:14;;;;;;;12.18;8.00;;;27.10;52.20;;;;;;5006998;28;20216;-75
2022/11/05 09:24:41;;;;;;;9.30;7.50;;;26.70;54.30;;;;;;5009427;28;20183;-73
2022/11/05 09:27:12;;;;;;;11.32;8.43;;;26.50;53.30;;;;;;5009737;28;20726;-75
2022/11/05 09:29:38;;;;;;;7.93;7.13;;;26.20;54.70;;;;;;5004899;28;20242;-73
2022/11/05 09:32:22;;;;;;;11.07;7.65;;;25.90;54.30;;;;;;5008927;28;20189;-76
2022/11/05 09:34:48;;;;;;;8.82;6.70;;;25.70;54.80;;;;;;5008384;28;20253;-79
2022/11/05 09:37:15;;;;;;;8.85;7.38;;;25.50;55.40;;;;;;5006226;28;20258;-74
2022/11/05 09:39:40;;;;;;;7.00;6.30;;;25.30;55.20;;;;;;5013866;28;20292;-76
2022/11/05 09:42:08;;;;;;;10.07;7.55;;;25.10;55.40;;;;;;5010539;28;20558;-77
2022/11/05 09:44:58;;;;;;;9.93;6.38;;;24.80;55.20;;;;;;5009857;28;20181;-74
2022/11/05 09:47:30;;;;;;;8.13;6.13;;;24.30;55.90;;;;;;5004935;28;20183;-73
2022/11/05 09:49:59;;;;;;;9.02;6.80;;;24.10;56.80;;;;;;5009154;28;20305;-73
2022/11/05 09:52:28;;;;;;;11.45;7.05;;;24.10;56.40;;;;;;5001958;28;20185;-72
2022/11/05 09:54:55;;;;;;;8.55;6.45;;;24.00;56.60;;;;;;5005246;28;20672;-75
2022/11/05 09:57:31;;;;;;;7.82;6.47;;;23.90;57.00;;;;;;5010886;28;20183;-76
2022/11/05 10:00:00;;;;;;;10.48;6.55;;;23.80;57.30;;;;;;5004312;28;20200;-72
2022/11/05 10:02:34;;;;;;;7.15;6.32;;;23.80;57.20;;;;;;5009934;28;20218;-71
2022/11/05 10:05:04;;;;;;;6.50;5.90;;;23.80;56.30;;;;;;5009642;28;20192;-72
2022/11/05 10:07:41;;;;;;;6.43;5.50;;;23.70;56.20;;;;;;5005913;28;20199;-72
2022/11/05 10:10:14;;;;;;;6.65;6.03;;;23.70;56.50;;;;;;5006273;28;20185;-72
2022/11/05 10:12:48;;;;;;;7.47;6.57;;;23.90;56.50;;;;;;5012213;28;20784;-72
2022/11/05 10:15:20;;;;;;;7.57;6.85;;;23.90;56.40;;;;;;5008982;28;20179;-73
2022/11/05 10:17:51;;;;;;;8.32;6.60;;;23.90;56.40;;;;;;5008802;28;20176;-72
2022/11/05 10:20:38;;;;;;;11.75;6.75;;;24.00;56.10;;;;;;5009860;28;20197;-72
2022/11/05 10:23:14;;;;;;;6.38;5.80;;;24.00;55.70;;;;;;5010475;28;20186;-71
2022/11/05 10:25:46;;;;;;;9.80;5.65;;;23.90;55.70;;;;;;5006797;28;20184;-71
2022/11/05 10:28:18;;;;;;;6.38;5.22;;;23.60;55.70;;;;;;5007890;28;20269;-72
2022/11/05 10:30:46;;;;;;;8.48;5.53;;;23.50;55.80;;;;;;5012569;28;20254;-73
2022/11/05 10:33:20;;;;;;;8.00;5.80;;;23.40;56.00;;;;;;5010433;28;20208;-75
2022/11/05 10:35:50;;;;;;;7.20;5.95;;;23.40;56.20;;;;;;5012965;28;20192;-73
2022/11/05 10:38:16;;;;;;;9.75;6.15;;;23.30;56.10;;;;;;5005992;28;20177;-74
2022/11/05 10:41:03;;;;;;;6.22;5.63;;;23.20;56.20;;;;;;5010534;28;20209;-75
2022/11/05 10:43:46;;;;;;;6.70;5.43;;;23.10;56.20;;;;;;5012724;28;20192;-74
2022/11/05 10:46:28;;;;;;;5.75;5.25;;;23.00;56.60;;;;;;5010081;28;20493;-73
2022/11/05 10:49:00;;;;;;;7.60;6.45;;;23.00;56.60;;;;;;5014382;28;20185;-73
2022/11/05 10:51:26;;;;;;;5.90;5.30;;;22.80;56.80;;;;;;5011100;28;20278;-73
2022/11/05 10:53:57;;;;;;;11.63;6.13;;;22.80;57.10;;;;;;5011689;28;20272;-72
2022/11/05 10:56:31;;;;;;;10.55;5.93;;;22.90;57.00;;;;;;5015797;28;20192;-72
2022/11/05 10:58:58;;;;;;;8.27;6.18;;;22.80;56.90;;;;;;5013324;28;20266;-72
2022/11/05 11:01:25;;;;;;;8.13;4.65;;;22.70;56.80;;;;;;5011074;28;20212;-72
2022/11/05 11:04:21;;;;;;;5.68;5.10;;;22.60;57.10;;;;;;5005963;28;20659;-75
2022/11/05 11:06:49;;;;;;;6.00;5.43;;;22.60;57.50;;;;;;5009132;28;20189;-74
2022/11/05 11:09:25;;;;;;;10.13;6.20;;;22.70;57.40;;;;;;5013436;28;20189;-74
2022/11/05 11:12:20;;;;;;;7.30;5.88;;;22.80;57.20;;;;;;5013976;28;20214;-74
2022/11/05 11:15:01;;;;;;;9.20;6.50;;;22.90;57.40;;;;;;5007354;28;20291;-74
2022/11/05 11:17:29;;;;;;;8.35;5.70;;;22.90;57.10;;;;;;5007045;28;20212;-75
2022/11/05 11:20:30;;;;;;;6.47;5.88;;;22.90;57.00;;;;;;5014178;28;20215;-73
2022/11/05 11:23:34;;;;;;;12.52;5.80;;;22.80;56.70;;;;;;5008949;28;20634;-74
2022/11/05 11:26:01;;;;;;;6.25;5.75;;;22.80;56.50;;;;;;4962369;28;20230;-75
2022/11/05 11:28:38;;;;;;;7.57;6.13;;;22.60;57.10;;;;;;4962388;28;20301;-74
2022/11/05 11:31:04;;;;;;;6.55;5.88;;;22.50;57.40;;;;;;4960986;28;20667;-74
2022/11/05 11:33:32;;;;;;;7.63;6.13;;;22.40;57.70;;;;;;4956601;28;20198;-73
2022/11/05 11:35:58;;;;;;;14.52;6.30;;;22.30;57.40;;;;;;4964536;28;20363;-74
2022/11/05 11:38:31;;;;;;;11.80;6.65;;;22.20;57.50;;;;;;4966069;28;20182;-74
2022/11/05 11:41:21;;;;;;;7.65;6.55;;;22.10;57.70;;;;;;4964426;28;20238;-73
2022/11/05 11:43:46;;;;;;;9.40;6.13;;;22.00;57.50;;;;;;4961936;28;20199;-75
2022/11/05 11:46:19;;;;;;;15.90;5.72;;;22.00;57.40;;;;;;4964946;28;20217;-76
2022/11/05 11:48:47;;;;;;;6.60;5.32;;;21.80;57.60;;;;;;4962258;28;20333;-75
2022/11/05 11:51:39;;;;;;;11.05;5.75;;;21.70;57.90;;;;;;4963349;28;20207;-73
2022/11/05 11:54:16;;;;;;;10.70;5.85;;;21.70;58.00;;;;;;4964746;28;20232;-76
2022/11/05 11:56:46;;;;;;;9.07;6.25;;;21.60;58.20;;;;;;4963986;28;20198;-77
2022/11/05 11:59:22;;;;;;;6.05;5.53;;;21.60;58.00;;;;;;4963281;28;20186;-72
2022/11/05 12:02:32;;;;;;;6.45;5.40;;;21.40;58.50;;;;;;4990942;28;20232;-72
2022/11/05 12:05:00;;;;;;;8.20;4.97;;;21.30;58.70;;;;;;5016050;28;20192;-73
2022/11/05 12:07:56;;;;;;;5.70;4.47;;;21.20;58.90;;;;;;5015370;28;20675;-74
2022/11/05 12:10:27;;;;;;;13.70;5.63;;;21.20;58.70;;;;;;5004750;28;20963;-73
2022/11/05 12:13:17;;;;;;;13.90;5.82;;;21.10;58.60;;;;;;5008653;28;20184;-74
2022/11/05 12:15:52;;;;;;;9.93;6.03;;;20.90;59.00;;;;;;5004488;28;20630;-76
2022/11/05 12:18:27;;;;;;;7.35;5.60;;;20.80;59.30;;;;;;5009106;28;20266;-74
2022/11/05 12:21:11;;;;;;;8.45;5.20;;;20.70;59.70;;;;;;5015615;28;20393;-74
2022/11/05 12:24:13;;;;;;;9.48;5.25;;;20.70;59.40;;;;;;5016712;28;20278;-72
2022/11/05 12:26:50;;;;;;;8.95;5.53;;;20.70;59.50;;;;;;5006521;28;20199;-72
2022/11/05 12:29:30;;;;;;;5.43;4.93;;;20.70;59.70;;;;;;5011277;28;20188;-71
2022/11/05 12:32:29;;;;;;;6.07;5.03;;;20.50;59.40;;;;;;5007104;28;20191;-73
2022/11/05 12:55:48;;;;;;;7.40;5.55;;;20.20;60.10;;;;;;5019178;23;20256;-71
2022/11/05 12:58:43;;;;;;;7.78;5.72;;;20.20;60.10;;;;;;4982745;28;20806;-71
2022/11/05 13:01:16;;;;;;;7.38;5.47;;;20.10;60.10;;;;;;5000989;28;20765;-70
2022/11/05 13:04:02;;;;;;;7.90;5.57;;;20.00;60.30;;;;;;4998975;28;20221;-69
2022/11/05 13:06:39;;;;;;;8.95;5.40;;;19.90;60.40;;;;;;5001673;28;20761;-70
2022/11/05 13:09:49;;;;;;;9.68;5.60;;;19.90;60.80;;;;;;4981806;28;20184;-68
2022/11/05 13:12:19;;;;;;;7.40;5.43;;;19.90;60.80;;;;;;4940261;28;20666;-70
2022/11/05 13:14:53;;;;;;;12.10;5.65;;;19.80;60.80;;;;;;4939482;28;20199;-70
2022/11/05 13:17:23;;;;;;;6.05;5.55;;;19.70;60.40;;;;;;4939651;28;20270;-71
2022/11/05 13:20:13;;;;;;;6.22;5.05;;;19.70;61.10;;;;;;4923515;29;20254;-70
2022/11/05 13:23:05;;;;;;;12.00;4.97;;;19.70;60.90;;;;;;4937641;28;20234;-70
2022/11/05 13:25:37;;;;;;;5.18;4.70;;;19.60;60.60;;;;;;4940039;28;20740;-70
2022/11/05 13:28:45;;;;;;;10.65;6.00;;;19.50;60.10;;;;;;4942031;28;20191;-70
2022/11/05 13:31:15;;;;;;;7.32;5.15;;;19.40;61.00;;;;;;4915838;29;20182;-71
2022/11/05 13:33:44;;;;;;;9.77;5.10;;;19.40;61.20;;;;;;4942038;28;20206;-71
2022/11/05 13:39:35;;;;;;;8.13;5.22;;;19.40;61.00;;;;;;4940118;28;20379;-71
2022/11/05 13:42:29;;;;;;;9.32;5.03;;;19.30;60.90;;;;;;4903476;29;20243;-70
2022/11/05 13:44:54;;;;;;;6.45;5.00;;;19.30;61.10;;;;;;4904479;29;20219;-71
2022/11/05 13:47:53;;;;;;;5.68;4.60;;;19.30;61.10;;;;;;4948935;28;21170;-70
2022/11/05 13:50:45;;;;;;;8.57;5.95;;;19.30;61.20;;;;;;4952320;28;20265;-72
2022/11/05 13:53:24;;;;;;;5.93;4.97;;;19.20;60.90;;;;;;4953116;28;20250;-70
2022/11/05 13:56:15;;;;;;;6.80;4.80;;;19.10;60.80;;;;;;4951588;28;20833;-70
2022/11/05 13:59:05;;;;;;;8.15;5.50;;;19.10;60.90;;;;;;4946227;28;20230;-71
2022/11/05 14:01:46;;;;;;;9.38;5.25;;;19.00;61.30;;;;;;4953106;28;20305;-72
2022/11/05 14:04:29;;;;;;;14.85;5.85;;;19.00;61.30;;;;;;4945158;28;21020;-72
2022/11/05 14:07:09;;;;;;;10.50;6.15;;;18.90;62.10;;;;;;4953275;28;20194;-71